sensor_id;sensor_type;location;lat;lon;timestamp;P1;durP1;ratioP1;P2;durP2;ratioP2
42226;SDS011;27892;52.378;13.122;2023-03-09T00:00:30;13.03;;;7.67;;
42226;SDS011;27892;52.378;13.122;2023-03-09T00:02:55;14.80;;;9.27;;
42226;SDS011;27892;52.378;13.122;2023-03-09T00:05:21;13.70;;;8.90;;
42226;SDS011;27892;52.378;13.122;2023-03-09T00:07:47;16.67;;;10.60;;
42226;SDS011;27892;52.378;13.122;2023-03-09T00:10:13;13.27;;;8.10;;
42226;SDS011;27892;52.378;13.122;2023-03-09T00:12:40;11.20;;;7.30;;
42226;SDS011;27892;52.378;13.122;2023-03-09T00:15:07;12.13;;;7.83;;
42226;SDS011;27892;52.378;13.122;2023-03-09T00:17:35;11.70;;;7.50;;
42226;SDS011;27892;52.378;13.122;2023-03-09T00:20:01;13.40;;;8.87;;
42226;SDS011;27892;52.378;13.122;2023-03-09T00:22:46;13.20;;;8.43;;
42226;SDS011;27892;52.378;13.122;2023-03-09T00:25:16;13.40;;;8.40;;
42226;SDS011;27892;52.378;13.122;2023-03-09T00:27:42;13.97;;;8.70;;
42226;SDS011;27892;52.378;13.122;2023-03-09T00:30:15;14.23;;;9.37;;
42226;SDS011;27892;52.378;13.122;2023-03-09T00:32:42;14.80;;;8.80;;
42226;SDS011;27892;52.378;13.122;2023-03-09T00:35:08;11.20;;;8.00;;
42226;SDS011;27892;52.378;13.122;2023-03-09T00:37:34;16.47;;;10.00;;
42226;SDS011;27892;52.378;13.122;2023-03-09T00:40:02;17.70;;;11.67;;
42226;SDS011;27892;52.378;13.122;2023-03-09T00:42:31;28.73;;;15.07;;
42226;SDS011;27892;52.378;13.122;2023-03-09T00:44:57;17.13;;;10.70;;
42226;SDS011;27892;52.378;13.122;2023-03-09T00:47:24;16.17;;;9.60;;
42226;SDS011;27892;52.378;13.122;2023-03-09T00:49:50;13.50;;;9.00;;
42226;SDS011;27892;52.378;13.122;2023-03-09T00:52:15;14.63;;;9.57;;
42226;SDS011;27892;52.378;13.122;2023-03-09T00:54:41;17.20;;;9.70;;
42226;SDS011;27892;52.378;13.122;2023-03-09T00:57:07;17.17;;;9.97;;
42226;SDS011;27892;52.378;13.122;2023-03-09T00:59:32;14.30;;;9.57;;
42226;SDS011;27892;52.378;13.122;2023-03-09T01:01:58;13.23;;;9.30;;
42226;SDS011;27892;52.378;13.122;2023-03-09T01:04:24;15.70;;;10.00;;
42226;SDS011;27892;52.378;13.122;2023-03-09T01:06:52;14.70;;;9.07;;
42226;SDS011;27892;52.378;13.122;2023-03-09T01:09:19;14.57;;;9.73;;
42226;SDS011;27892;52.378;13.122;2023-03-09T01:11:44;14.93;;;9.40;;
42226;SDS011;27892;52.378;13.122;2023-03-09T01:14:10;15.47;;;10.33;;
42226;SDS011;27892;52.378;13.122;2023-03-09T01:16:36;14.60;;;9.53;;
42226;SDS011;27892;52.378;13.122;2023-03-09T01:19:02;17.40;;;10.40;;
42226;SDS011;27892;52.378;13.122;2023-03-09T01:21:30;16.17;;;9.93;;
42226;SDS011;27892;52.378;13.122;2023-03-09T01:23:55;15.40;;;9.27;;
42226;SDS011;27892;52.378;13.122;2023-03-09T01:26:21;16.10;;;9.50;;
42226;SDS011;27892;52.378;13.122;2023-03-09T01:28:47;14.77;;;8.93;;
42226;SDS011;27892;52.378;13.122;2023-03-09T01:31:13;17.90;;;10.20;;
42226;SDS011;27892;52.378;13.122;2023-03-09T01:33:40;14.37;;;10.10;;
42226;SDS011;27892;52.378;13.122;2023-03-09T01:36:07;14.50;;;9.63;;
42226;SDS011;27892;52.378;13.122;2023-03-09T01:38:37;19.47;;;10.97;;
42226;SDS011;27892;52.378;13.122;2023-03-09T01:41:03;17.70;;;10.57;;
42226;SDS011;27892;52.378;13.122;2023-03-09T01:48:58;30.30;;;17.50;;
42226;SDS011;27892;52.378;13.122;2023-03-09T01:57:44;18.03;;;10.43;;
42226;SDS011;27892;52.378;13.122;2023-03-09T02:02:52;17.80;;;10.47;;
42226;SDS011;27892;52.378;13.122;2023-03-09T02:05:24;19.30;;;11.33;;
42226;SDS011;27892;52.378;13.122;2023-03-09T02:07:56;21.27;;;11.97;;
42226;SDS011;27892;52.378;13.122;2023-03-09T02:10:28;20.97;;;12.00;;
42226;SDS011;27892;52.378;13.122;2023-03-09T02:12:58;21.47;;;12.20;;
42226;SDS011;27892;52.378;13.122;2023-03-09T02:15:31;19.23;;;11.43;;
42226;SDS011;27892;52.378;13.122;2023-03-09T02:17:57;19.07;;;10.80;;
42226;SDS011;27892;52.378;13.122;2023-03-09T02:23:12;20.47;;;11.97;;
42226;SDS011;27892;52.378;13.122;2023-03-09T02:26:24;23.00;;;12.40;;
42226;SDS011;27892;52.378;13.122;2023-03-09T02:28:51;26.90;;;14.60;;
42226;SDS011;27892;52.378;13.122;2023-03-09T02:31:17;23.47;;;12.70;;
42226;SDS011;27892;52.378;13.122;2023-03-09T02:33:44;23.37;;;13.40;;
42226;SDS011;27892;52.378;13.122;2023-03-09T02:36:10;25.10;;;13.70;;
42226;SDS011;27892;52.378;13.122;2023-03-09T02:38:36;25.77;;;14.10;;
42226;SDS011;27892;52.378;13.122;2023-03-09T02:41:03;24.37;;;13.77;;
42226;SDS011;27892;52.378;13.122;2023-03-09T02:43:32;22.77;;;12.43;;
42226;SDS011;27892;52.378;13.122;2023-03-09T02:46:01;21.90;;;12.57;;
42226;SDS011;27892;52.378;13.122;2023-03-09T02:48:27;22.77;;;12.97;;
42226;SDS011;27892;52.378;13.122;2023-03-09T02:50:52;26.67;;;15.07;;
42226;SDS011;27892;52.378;13.122;2023-03-09T02:53:18;25.37;;;13.03;;
42226;SDS011;27892;52.378;13.122;2023-03-09T02:55:44;20.90;;;12.17;;
42226;SDS011;27892;52.378;13.122;2023-03-09T02:58:09;27.50;;;14.87;;
42226;SDS011;27892;52.378;13.122;2023-03-09T03:00:35;22.97;;;13.30;;
42226;SDS011;27892;52.378;13.122;2023-03-09T03:03:01;20.40;;;12.17;;
42226;SDS011;27892;52.378;13.122;2023-03-09T03:05:27;28.77;;;16.27;;
42226;SDS011;27892;52.378;13.122;2023-03-09T03:07:53;31.63;;;17.20;;
42226;SDS011;27892;52.378;13.122;2023-03-09T03:10:18;26.60;;;14.60;;
42226;SDS011;27892;52.378;13.122;2023-03-09T03:12:44;31.77;;;16.90;;
42226;SDS011;27892;52.378;13.122;2023-03-09T03:15:10;25.17;;;14.37;;
42226;SDS011;27892;52.378;13.122;2023-03-09T03:17:36;22.53;;;12.47;;
42226;SDS011;27892;52.378;13.122;2023-03-09T03:20:20;27.47;;;15.33;;
42226;SDS011;27892;52.378;13.122;2023-03-09T03:23:04;29.23;;;15.77;;
42226;SDS011;27892;52.378;13.122;2023-03-09T03:25:29;29.93;;;15.33;;
42226;SDS011;27892;52.378;13.122;2023-03-09T03:27:55;30.47;;;15.57;;
42226;SDS011;27892;52.378;13.122;2023-03-09T03:30:22;25.87;;;14.50;;
42226;SDS011;27892;52.378;13.122;2023-03-09T03:32:48;25.30;;;13.70;;
42226;SDS011;27892;52.378;13.122;2023-03-09T03:35:17;25.80;;;13.30;;
42226;SDS011;27892;52.378;13.122;2023-03-09T03:37:43;24.37;;;13.67;;
42226;SDS011;27892;52.378;13.122;2023-03-09T03:40:09;24.90;;;14.00;;
42226;SDS011;27892;52.378;13.122;2023-03-09T03:42:35;29.03;;;15.47;;
42226;SDS011;27892;52.378;13.122;2023-03-09T03:45:01;28.00;;;15.23;;
42226;SDS011;27892;52.378;13.122;2023-03-09T03:47:27;32.93;;;17.00;;
42226;SDS011;27892;52.378;13.122;2023-03-09T03:49:52;28.67;;;15.33;;
42226;SDS011;27892;52.378;13.122;2023-03-09T03:52:18;29.93;;;16.17;;
42226;SDS011;27892;52.378;13.122;2023-03-09T03:54:44;30.73;;;16.77;;
42226;SDS011;27892;52.378;13.122;2023-03-09T03:57:09;31.10;;;16.23;;
42226;SDS011;27892;52.378;13.122;2023-03-09T03:59:35;28.90;;;15.50;;
42226;SDS011;27892;52.378;13.122;2023-03-09T04:02:01;29.70;;;15.50;;
42226;SDS011;27892;52.378;13.122;2023-03-09T04:04:26;30.50;;;16.33;;
42226;SDS011;27892;52.378;13.122;2023-03-09T04:06:52;31.30;;;16.00;;
42226;SDS011;27892;52.378;13.122;2023-03-09T04:09:18;34.20;;;17.67;;
42226;SDS011;27892;52.378;13.122;2023-03-09T04:11:43;30.77;;;16.57;;
42226;SDS011;27892;52.378;13.122;2023-03-09T04:14:10;35.27;;;17.90;;
42226;SDS011;27892;52.378;13.122;2023-03-09T04:16:36;32.00;;;16.77;;
42226;SDS011;27892;52.378;13.122;2023-03-09T04:19:03;30.73;;;15.73;;
42226;SDS011;27892;52.378;13.122;2023-03-09T04:21:29;30.60;;;16.00;;
42226;SDS011;27892;52.378;13.122;2023-03-09T04:23:55;29.07;;;15.13;;
42226;SDS011;27892;52.378;13.122;2023-03-09T04:26:21;28.73;;;15.37;;
42226;SDS011;27892;52.378;13.122;2023-03-09T04:28:46;28.33;;;14.97;;
42226;SDS011;27892;52.378;13.122;2023-03-09T04:31:12;29.00;;;15.63;;
42226;SDS011;27892;52.378;13.122;2023-03-09T04:33:37;27.67;;;15.30;;
42226;SDS011;27892;52.378;13.122;2023-03-09T04:36:08;26.33;;;14.17;;
42226;SDS011;27892;52.378;13.122;2023-03-09T04:38:35;27.40;;;15.30;;
42226;SDS011;27892;52.378;13.122;2023-03-09T04:41:01;33.63;;;17.37;;
42226;SDS011;27892;52.378;13.122;2023-03-09T04:43:26;28.03;;;14.87;;
42226;SDS011;27892;52.378;13.122;2023-03-09T04:45:53;26.27;;;14.00;;
42226;SDS011;27892;52.378;13.122;2023-03-09T04:48:19;24.73;;;13.50;;
42226;SDS011;27892;52.378;13.122;2023-03-09T04:50:45;22.87;;;13.10;;
42226;SDS011;27892;52.378;13.122;2023-03-09T04:53:10;26.67;;;13.97;;
42226;SDS011;27892;52.378;13.122;2023-03-09T04:55:36;25.60;;;13.27;;
42226;SDS011;27892;52.378;13.122;2023-03-09T04:58:03;23.77;;;13.07;;
42226;SDS011;27892;52.378;13.122;2023-03-09T05:00:28;21.77;;;12.17;;
42226;SDS011;27892;52.378;13.122;2023-03-09T05:02:55;19.93;;;11.70;;
42226;SDS011;27892;52.378;13.122;2023-03-09T05:05:20;21.60;;;11.87;;
42226;SDS011;27892;52.378;13.122;2023-03-09T05:07:46;25.43;;;13.83;;
42226;SDS011;27892;52.378;13.122;2023-03-09T05:10:12;23.67;;;13.30;;
42226;SDS011;27892;52.378;13.122;2023-03-09T05:12:37;23.33;;;13.57;;
42226;SDS011;27892;52.378;13.122;2023-03-09T05:15:03;23.10;;;12.70;;
42226;SDS011;27892;52.378;13.122;2023-03-09T05:17:29;23.23;;;13.20;;
42226;SDS011;27892;52.378;13.122;2023-03-09T05:19:56;22.60;;;12.73;;
42226;SDS011;27892;52.378;13.122;2023-03-09T05:22:21;20.87;;;11.73;;
42226;SDS011;27892;52.378;13.122;2023-03-09T05:24:47;21.93;;;12.23;;
42226;SDS011;27892;52.378;13.122;2023-03-09T05:27:13;21.27;;;12.13;;
42226;SDS011;27892;52.378;13.122;2023-03-09T05:29:39;20.87;;;12.00;;
42226;SDS011;27892;52.378;13.122;2023-03-09T05:32:06;17.97;;;10.43;;
42226;SDS011;27892;52.378;13.122;2023-03-09T05:34:33;24.47;;;13.27;;
42226;SDS011;27892;52.378;13.122;2023-03-09T05:36:59;23.87;;;13.40;;
42226;SDS011;27892;52.378;13.122;2023-03-09T05:39:25;19.83;;;11.70;;
42226;SDS011;27892;52.378;13.122;2023-03-09T05:41:52;23.77;;;14.10;;
42226;SDS011;27892;52.378;13.122;2023-03-09T05:44:17;23.40;;;13.37;;
42226;SDS011;27892;52.378;13.122;2023-03-09T05:46:43;21.50;;;12.70;;
42226;SDS011;27892;52.378;13.122;2023-03-09T05:49:09;21.03;;;12.10;;
42226;SDS011;27892;52.378;13.122;2023-03-09T05:51:35;24.23;;;14.20;;
42226;SDS011;27892;52.378;13.122;2023-03-09T05:54:01;23.37;;;13.83;;
42226;SDS011;27892;52.378;13.122;2023-03-09T05:56:27;22.37;;;12.90;;
42226;SDS011;27892;52.378;13.122;2023-03-09T05:58:53;22.20;;;12.67;;
42226;SDS011;27892;52.378;13.122;2023-03-09T06:01:22;18.70;;;11.33;;
42226;SDS011;27892;52.378;13.122;2023-03-09T06:03:52;18.07;;;10.93;;
42226;SDS011;27892;52.378;13.122;2023-03-09T06:06:18;22.90;;;13.10;;
42226;SDS011;27892;52.378;13.122;2023-03-09T06:08:44;23.03;;;13.20;;
42226;SDS011;27892;52.378;13.122;2023-03-09T06:11:10;19.00;;;11.50;;
42226;SDS011;27892;52.378;13.122;2023-03-09T06:13:36;24.83;;;13.70;;
42226;SDS011;27892;52.378;13.122;2023-03-09T06:16:07;24.63;;;13.43;;
42226;SDS011;27892;52.378;13.122;2023-03-09T06:18:33;23.47;;;12.63;;
42226;SDS011;27892;52.378;13.122;2023-03-09T06:21:02;20.93;;;12.63;;
42226;SDS011;27892;52.378;13.122;2023-03-09T06:23:30;20.70;;;12.10;;
42226;SDS011;27892;52.378;13.122;2023-03-09T06:25:56;20.50;;;12.23;;
42226;SDS011;27892;52.378;13.122;2023-03-09T06:28:22;20.57;;;12.50;;
42226;SDS011;27892;52.378;13.122;2023-03-09T06:30:49;22.37;;;12.87;;
42226;SDS011;27892;52.378;13.122;2023-03-09T06:33:14;21.83;;;13.20;;
42226;SDS011;27892;52.378;13.122;2023-03-09T06:35:40;23.63;;;13.17;;
42226;SDS011;27892;52.378;13.122;2023-03-09T06:38:06;19.37;;;11.77;;
42226;SDS011;27892;52.378;13.122;2023-03-09T06:40:32;19.13;;;11.23;;
42226;SDS011;27892;52.378;13.122;2023-03-09T06:42:57;22.80;;;12.77;;
42226;SDS011;27892;52.378;13.122;2023-03-09T06:45:23;21.30;;;12.70;;
42226;SDS011;27892;52.378;13.122;2023-03-09T06:47:52;19.47;;;12.27;;
42226;SDS011;27892;52.378;13.122;2023-03-09T06:50:19;20.83;;;13.00;;
42226;SDS011;27892;52.378;13.122;2023-03-09T06:52:45;20.03;;;12.20;;
42226;SDS011;27892;52.378;13.122;2023-03-09T06:55:11;21.30;;;13.30;;
42226;SDS011;27892;52.378;13.122;2023-03-09T06:57:37;23.33;;;13.27;;
42226;SDS011;27892;52.378;13.122;2023-03-09T07:00:03;24.70;;;15.03;;
42226;SDS011;27892;52.378;13.122;2023-03-09T07:02:30;21.87;;;12.87;;
42226;SDS011;27892;52.378;13.122;2023-03-09T07:04:56;19.23;;;12.20;;
42226;SDS011;27892;52.378;13.122;2023-03-09T07:07:22;20.83;;;12.43;;
42226;SDS011;27892;52.378;13.122;2023-03-09T07:09:48;22.77;;;13.10;;
42226;SDS011;27892;52.378;13.122;2023-03-09T07:12:14;22.57;;;14.07;;
42226;SDS011;27892;52.378;13.122;2023-03-09T07:14:39;22.73;;;14.20;;
42226;SDS011;27892;52.378;13.122;2023-03-09T07:17:05;22.07;;;12.83;;
42226;SDS011;27892;52.378;13.122;2023-03-09T07:19:31;21.50;;;13.27;;
42226;SDS011;27892;52.378;13.122;2023-03-09T07:21:56;21.03;;;12.87;;
42226;SDS011;27892;52.378;13.122;2023-03-09T07:24:22;19.67;;;12.43;;
42226;SDS011;27892;52.378;13.122;2023-03-09T07:26:48;22.30;;;12.60;;
42226;SDS011;27892;52.378;13.122;2023-03-09T07:29:14;19.33;;;11.73;;
42226;SDS011;27892;52.378;13.122;2023-03-09T07:31:40;18.30;;;11.73;;
42226;SDS011;27892;52.378;13.122;2023-03-09T07:34:06;16.70;;;10.73;;
42226;SDS011;27892;52.378;13.122;2023-03-09T07:36:32;20.10;;;12.60;;
42226;SDS011;27892;52.378;13.122;2023-03-09T07:38:57;23.97;;;15.10;;
42226;SDS011;27892;52.378;13.122;2023-03-09T07:41:23;24.50;;;16.27;;
42226;SDS011;27892;52.378;13.122;2023-03-09T07:43:48;25.03;;;15.00;;
42226;SDS011;27892;52.378;13.122;2023-03-09T07:46:14;21.70;;;13.63;;
42226;SDS011;27892;52.378;13.122;2023-03-09T07:48:41;18.57;;;12.23;;
42226;SDS011;27892;52.378;13.122;2023-03-09T07:51:08;19.60;;;11.50;;
42226;SDS011;27892;52.378;13.122;2023-03-09T07:53:36;18.00;;;11.27;;
42226;SDS011;27892;52.378;13.122;2023-03-09T07:56:03;18.27;;;12.03;;
42226;SDS011;27892;52.378;13.122;2023-03-09T07:58:32;20.60;;;13.00;;
42226;SDS011;27892;52.378;13.122;2023-03-09T08:00:59;20.27;;;13.23;;
42226;SDS011;27892;52.378;13.122;2023-03-09T08:03:25;18.73;;;12.43;;
42226;SDS011;27892;52.378;13.122;2023-03-09T08:05:52;19.27;;;12.57;;
42226;SDS011;27892;52.378;13.122;2023-03-09T08:08:24;20.90;;;13.97;;
42226;SDS011;27892;52.378;13.122;2023-03-09T08:10:53;20.67;;;12.77;;
42226;SDS011;27892;52.378;13.122;2023-03-09T08:13:20;18.73;;;12.27;;
42226;SDS011;27892;52.378;13.122;2023-03-09T08:15:47;21.10;;;13.53;;
42226;SDS011;27892;52.378;13.122;2023-03-09T08:18:13;29.67;;;17.90;;
42226;SDS011;27892;52.378;13.122;2023-03-09T08:20:39;25.07;;;14.97;;
42226;SDS011;27892;52.378;13.122;2023-03-09T08:23:05;18.70;;;13.07;;
42226;SDS011;27892;52.378;13.122;2023-03-09T08:25:31;19.23;;;12.67;;
42226;SDS011;27892;52.378;13.122;2023-03-09T08:27:58;19.47;;;12.87;;
42226;SDS011;27892;52.378;13.122;2023-03-09T08:30:24;17.83;;;12.33;;
42226;SDS011;27892;52.378;13.122;2023-03-09T08:32:51;18.03;;;12.83;;
42226;SDS011;27892;52.378;13.122;2023-03-09T08:35:18;20.63;;;13.50;;
42226;SDS011;27892;52.378;13.122;2023-03-09T08:37:45;20.40;;;13.53;;
42226;SDS011;27892;52.378;13.122;2023-03-09T08:40:11;16.57;;;12.03;;
42226;SDS011;27892;52.378;13.122;2023-03-09T08:42:37;20.07;;;14.30;;
42226;SDS011;27892;52.378;13.122;2023-03-09T08:45:04;19.03;;;13.80;;
42226;SDS011;27892;52.378;13.122;2023-03-09T08:47:30;19.13;;;12.67;;
42226;SDS011;27892;52.378;13.122;2023-03-09T08:49:57;20.00;;;13.77;;
42226;SDS011;27892;52.378;13.122;2023-03-09T08:52:23;16.63;;;11.63;;
42226;SDS011;27892;52.378;13.122;2023-03-09T08:54:50;16.07;;;11.40;;
42226;SDS011;27892;52.378;13.122;2023-03-09T08:57:16;18.57;;;12.40;;
42226;SDS011;27892;52.378;13.122;2023-03-09T08:59:43;17.80;;;12.43;;
42226;SDS011;27892;52.378;13.122;2023-03-09T09:02:12;18.10;;;12.93;;
42226;SDS011;27892;52.378;13.122;2023-03-09T09:04:48;16.77;;;11.97;;
42226;SDS011;27892;52.378;13.122;2023-03-09T09:07:15;17.63;;;12.27;;
42226;SDS011;27892;52.378;13.122;2023-03-09T09:09:41;21.17;;;14.37;;
42226;SDS011;27892;52.378;13.122;2023-03-09T09:12:10;18.43;;;12.60;;
42226;SDS011;27892;52.378;13.122;2023-03-09T09:14:37;15.00;;;10.90;;
42226;SDS011;27892;52.378;13.122;2023-03-09T09:17:04;15.43;;;11.20;;
42226;SDS011;27892;52.378;13.122;2023-03-09T09:19:37;17.90;;;12.20;;
42226;SDS011;27892;52.378;13.122;2023-03-09T09:22:03;20.23;;;13.97;;
42226;SDS011;27892;52.378;13.122;2023-03-09T09:24:30;17.40;;;12.17;;
42226;SDS011;27892;52.378;13.122;2023-03-09T09:26:59;17.20;;;12.77;;
42226;SDS011;27892;52.378;13.122;2023-03-09T09:29:25;17.37;;;12.67;;
42226;SDS011;27892;52.378;13.122;2023-03-09T09:31:52;16.30;;;12.40;;
42226;SDS011;27892;52.378;13.122;2023-03-09T09:34:18;21.07;;;14.20;;
42226;SDS011;27892;52.378;13.122;2023-03-09T09:36:44;17.30;;;12.50;;
42226;SDS011;27892;52.378;13.122;2023-03-09T09:39:13;17.27;;;11.43;;
42226;SDS011;27892;52.378;13.122;2023-03-09T09:44:29;18.17;;;13.37;;
42226;SDS011;27892;52.378;13.122;2023-03-09T09:46:56;17.53;;;12.10;;
42226;SDS011;27892;52.378;13.122;2023-03-09T09:49:25;17.73;;;13.33;;
42226;SDS011;27892;52.378;13.122;2023-03-09T09:54:55;23.30;;;15.93;;
42226;SDS011;27892;52.378;13.122;2023-03-09T09:57:44;18.90;;;13.20;;
42226;SDS011;27892;52.378;13.122;2023-03-09T10:05:49;24.03;;;15.33;;
42226;SDS011;27892;52.378;13.122;2023-03-09T10:16:45;20.67;;;14.70;;
42226;SDS011;27892;52.378;13.122;2023-03-09T10:19:34;23.17;;;16.37;;
42226;SDS011;27892;52.378;13.122;2023-03-09T10:24:42;21.47;;;14.47;;
42226;SDS011;27892;52.378;13.122;2023-03-09T10:35:22;20.07;;;13.70;;
42226;SDS011;27892;52.378;13.122;2023-03-09T10:37:58;20.07;;;14.23;;
42226;SDS011;27892;52.378;13.122;2023-03-09T10:40:26;19.43;;;13.37;;
42226;SDS011;27892;52.378;13.122;2023-03-09T10:42:58;19.03;;;13.53;;
42226;SDS011;27892;52.378;13.122;2023-03-09T10:45:25;20.73;;;14.23;;
42226;SDS011;27892;52.378;13.122;2023-03-09T10:47:56;23.60;;;16.10;;
42226;SDS011;27892;52.378;13.122;2023-03-09T10:50:31;22.27;;;15.20;;
42226;SDS011;27892;52.378;13.122;2023-03-09T10:53:14;27.23;;;17.70;;
42226;SDS011;27892;52.378;13.122;2023-03-09T10:56:45;21.87;;;15.03;;
42226;SDS011;27892;52.378;13.122;2023-03-09T11:01:28;24.47;;;16.67;;
42226;SDS011;27892;52.378;13.122;2023-03-09T11:03:54;28.07;;;17.53;;
42226;SDS011;27892;52.378;13.122;2023-03-09T11:06:37;26.23;;;16.83;;
42226;SDS011;27892;52.378;13.122;2023-03-09T11:09:04;21.93;;;14.90;;
42226;SDS011;27892;52.378;13.122;2023-03-09T11:11:43;22.80;;;15.60;;
42226;SDS011;27892;52.378;13.122;2023-03-09T11:14:25;19.37;;;13.77;;
42226;SDS011;27892;52.378;13.122;2023-03-09T11:16:57;21.03;;;14.03;;
42226;SDS011;27892;52.378;13.122;2023-03-09T11:19:25;22.20;;;15.43;;
42226;SDS011;27892;52.378;13.122;2023-03-09T11:27:18;27.63;;;18.23;;
42226;SDS011;27892;52.378;13.122;2023-03-09T11:29:57;27.53;;;18.70;;
42226;SDS011;27892;52.378;13.122;2023-03-09T11:32:42;28.37;;;18.83;;
42226;SDS011;27892;52.378;13.122;2023-03-09T11:35:11;26.93;;;17.23;;
42226;SDS011;27892;52.378;13.122;2023-03-09T11:40:17;26.20;;;16.77;;
42226;SDS011;27892;52.378;13.122;2023-03-09T11:42:56;25.83;;;16.53;;
42226;SDS011;27892;52.378;13.122;2023-03-09T11:45:29;26.20;;;17.03;;
42226;SDS011;27892;52.378;13.122;2023-03-09T11:50:29;24.93;;;16.00;;
42226;SDS011;27892;52.378;13.122;2023-03-09T11:53:02;24.60;;;16.00;;
42226;SDS011;27892;52.378;13.122;2023-03-09T11:55:46;23.37;;;15.80;;
42226;SDS011;27892;52.378;13.122;2023-03-09T11:58:26;23.63;;;15.77;;
42226;SDS011;27892;52.378;13.122;2023-03-09T12:01:03;24.43;;;16.13;;
42226;SDS011;27892;52.378;13.122;2023-03-09T12:03:46;20.43;;;13.90;;
42226;SDS011;27892;52.378;13.122;2023-03-09T12:06:24;20.73;;;13.77;;
42226;SDS011;27892;52.378;13.122;2023-03-09T12:08:51;22.50;;;14.93;;
42226;SDS011;27892;52.378;13.122;2023-03-09T12:11:30;20.47;;;13.17;;
42226;SDS011;27892;52.378;13.122;2023-03-09T12:14:22;23.67;;;14.40;;
42226;SDS011;27892;52.378;13.122;2023-03-09T12:16:54;23.07;;;15.33;;
42226;SDS011;27892;52.378;13.122;2023-03-09T12:19:25;26.30;;;16.40;;
42226;SDS011;27892;52.378;13.122;2023-03-09T12:21:58;24.07;;;15.57;;
42226;SDS011;27892;52.378;13.122;2023-03-09T12:30:05;22.63;;;14.97;;
42226;SDS011;27892;52.378;13.122;2023-03-09T12:32:41;20.80;;;14.10;;
42226;SDS011;27892;52.378;13.122;2023-03-09T12:38:21;19.47;;;13.13;;
42226;SDS011;27892;52.378;13.122;2023-03-09T12:40:49;20.43;;;13.57;;
42226;SDS011;27892;52.378;13.122;2023-03-09T12:45:50;24.43;;;16.33;;
42226;SDS011;27892;52.378;13.122;2023-03-09T12:54:05;24.70;;;15.80;;
42226;SDS011;27892;52.378;13.122;2023-03-09T12:56:46;27.53;;;17.07;;
42226;SDS011;27892;52.378;13.122;2023-03-09T12:59:15;26.93;;;16.73;;
42226;SDS011;27892;52.378;13.122;2023-03-09T13:01:46;23.63;;;15.47;;
42226;SDS011;27892;52.378;13.122;2023-03-09T13:04:14;28.97;;;16.87;;
42226;SDS011;27892;52.378;13.122;2023-03-09T13:24:12;27.17;;;16.90;;
42226;SDS011;27892;52.378;13.122;2023-03-09T13:26:43;45.53;;;26.57;;
42226;SDS011;27892;52.378;13.122;2023-03-09T13:29:14;37.13;;;23.83;;
42226;SDS011;27892;52.378;13.122;2023-03-09T13:31:41;31.47;;;19.30;;
42226;SDS011;27892;52.378;13.122;2023-03-09T13:34:16;28.63;;;17.00;;
42226;SDS011;27892;52.378;13.122;2023-03-09T13:36:52;27.70;;;17.73;;
42226;SDS011;27892;52.378;13.122;2023-03-09T13:39:20;27.73;;;16.37;;
42226;SDS011;27892;52.378;13.122;2023-03-09T13:41:47;26.67;;;17.77;;
42226;SDS011;27892;52.378;13.122;2023-03-09T13:44:22;23.63;;;14.63;;
42226;SDS011;27892;52.378;13.122;2023-03-09T13:46:50;27.50;;;16.80;;
42226;SDS011;27892;52.378;13.122;2023-03-09T13:49:29;27.37;;;16.03;;
42226;SDS011;27892;52.378;13.122;2023-03-09T13:51:58;27.43;;;16.50;;
42226;SDS011;27892;52.378;13.122;2023-03-09T13:54:49;27.20;;;16.10;;
42226;SDS011;27892;52.378;13.122;2023-03-09T13:59:58;30.97;;;17.20;;
42226;SDS011;27892;52.378;13.122;2023-03-09T14:02:26;28.13;;;16.63;;
42226;SDS011;27892;52.378;13.122;2023-03-09T14:07:26;39.23;;;21.67;;
42226;SDS011;27892;52.378;13.122;2023-03-09T14:09:57;41.73;;;24.40;;
42226;SDS011;27892;52.378;13.122;2023-03-09T14:12:27;31.50;;;18.80;;
42226;SDS011;27892;52.378;13.122;2023-03-09T14:14:53;31.50;;;17.40;;
42226;SDS011;27892;52.378;13.122;2023-03-09T14:17:20;29.53;;;17.83;;
42226;SDS011;27892;52.378;13.122;2023-03-09T14:19:49;28.73;;;17.00;;
42226;SDS011;27892;52.378;13.122;2023-03-09T14:22:17;27.50;;;16.43;;
42226;SDS011;27892;52.378;13.122;2023-03-09T14:24:44;28.63;;;17.80;;
42226;SDS011;27892;52.378;13.122;2023-03-09T14:27:11;33.03;;;19.07;;
42226;SDS011;27892;52.378;13.122;2023-03-09T14:29:54;26.83;;;16.57;;
42226;SDS011;27892;52.378;13.122;2023-03-09T14:32:21;28.03;;;16.83;;
42226;SDS011;27892;52.378;13.122;2023-03-09T14:34:51;29.70;;;19.40;;
42226;SDS011;27892;52.378;13.122;2023-03-09T14:37:20;31.93;;;18.87;;
42226;SDS011;27892;52.378;13.122;2023-03-09T14:39:54;30.17;;;17.67;;
42226;SDS011;27892;52.378;13.122;2023-03-09T14:45:02;32.93;;;18.23;;
42226;SDS011;27892;52.378;13.122;2023-03-09T14:47:37;29.47;;;17.60;;
42226;SDS011;27892;52.378;13.122;2023-03-09T14:50:04;37.67;;;20.73;;
42226;SDS011;27892;52.378;13.122;2023-03-09T14:52:30;34.63;;;19.83;;
42226;SDS011;27892;52.378;13.122;2023-03-09T14:54:57;30.40;;;18.13;;
42226;SDS011;27892;52.378;13.122;2023-03-09T14:57:26;31.00;;;18.97;;
42226;SDS011;27892;52.378;13.122;2023-03-09T14:59:52;26.83;;;16.30;;
42226;SDS011;27892;52.378;13.122;2023-03-09T15:02:18;30.43;;;17.43;;
42226;SDS011;27892;52.378;13.122;2023-03-09T15:04:45;38.10;;;21.00;;
42226;SDS011;27892;52.378;13.122;2023-03-09T15:07:13;30.73;;;17.83;;
42226;SDS011;27892;52.378;13.122;2023-03-09T15:09:39;29.80;;;17.90;;
42226;SDS011;27892;52.378;13.122;2023-03-09T15:12:16;31.17;;;18.97;;
42226;SDS011;27892;52.378;13.122;2023-03-09T15:14:44;31.13;;;18.47;;
42226;SDS011;27892;52.378;13.122;2023-03-09T15:17:13;31.97;;;18.93;;
42226;SDS011;27892;52.378;13.122;2023-03-09T15:19:40;39.47;;;21.30;;
42226;SDS011;27892;52.378;13.122;2023-03-09T15:22:07;31.67;;;18.53;;
42226;SDS011;27892;52.378;13.122;2023-03-09T15:24:38;27.40;;;15.17;;
42226;SDS011;27892;52.378;13.122;2023-03-09T15:27:04;24.83;;;15.13;;
42226;SDS011;27892;52.378;13.122;2023-03-09T15:29:30;31.93;;;17.83;;
42226;SDS011;27892;52.378;13.122;2023-03-09T15:31:55;26.73;;;17.30;;
42226;SDS011;27892;52.378;13.122;2023-03-09T15:34:22;31.97;;;17.60;;
42226;SDS011;27892;52.378;13.122;2023-03-09T15:36:48;38.53;;;21.07;;
42226;SDS011;27892;52.378;13.122;2023-03-09T15:39:14;30.17;;;17.27;;
42226;SDS011;27892;52.378;13.122;2023-03-09T15:41:39;30.67;;;17.07;;
42226;SDS011;27892;52.378;13.122;2023-03-09T15:44:05;27.37;;;15.90;;
42226;SDS011;27892;52.378;13.122;2023-03-09T15:46:31;28.73;;;16.80;;
42226;SDS011;27892;52.378;13.122;2023-03-09T15:48:56;33.33;;;18.33;;
42226;SDS011;27892;52.378;13.122;2023-03-09T15:51:22;26.73;;;16.03;;
42226;SDS011;27892;52.378;13.122;2023-03-09T15:53:48;36.97;;;20.23;;
42226;SDS011;27892;52.378;13.122;2023-03-09T15:56:15;30.73;;;16.57;;
42226;SDS011;27892;52.378;13.122;2023-03-09T15:58:41;27.47;;;15.17;;
42226;SDS011;27892;52.378;13.122;2023-03-09T16:01:11;24.30;;;14.23;;